Time;durP1;ratioP1;P1;durP2;ratioP2;P2;SDS_P1;SDS_P2;PMS_P1;PMS_P2;Temp;Humidity;BMP_temperature;BMP_pressure;BME280_temperature;BME280_humidity;BME280_pressure;Samples;Min_cycle;Max_cycle;Signal;HPM_P1;HPM_P2
2022/01/12 00:01:42;;;;;;;3.25;2.95;;;5.00;99.90;;;;;;5102570;28;20232;-80
2022/01/12 00:04:10;;;;;;;5.15;3.65;;;4.90;99.90;;;;;;5095916;28;20226;-79
2022/01/12 00:06:39;;;;;;;5.15;3.10;;;4.80;99.90;;;;;;5107007;28;20203;-79
2022/01/12 00:09:08;;;;;;;5.97;3.80;;;4.80;99.90;;;;;;5101267;28;20198;-78
2022/01/12 00:11:38;;;;;;;4.10;2.60;;;4.70;99.90;;;;;;5101645;28;20206;-78
2022/01/12 00:14:06;;;;;;;4.38;3.13;;;4.80;99.90;;;;;;5106411;28;20731;-79
2022/01/12 00:16:34;;;;;;;5.55;4.28;;;4.70;99.90;;;;;;5099814;28;20194;-80
2022/01/12 00:19:03;;;;;;;3.67;2.97;;;4.70;99.90;;;;;;5104008;28;20190;-80
2022/01/12 00:21:31;;;;;;;5.30;2.70;;;4.70;99.90;;;;;;5100200;28;20285;-79
2022/01/12 00:23:59;;;;;;;6.07;3.25;;;4.70;99.90;;;;;;5105008;28;20230;-80
2022/01/12 00:33:07;;;;;;;4.20;3.05;;;4.90;99.90;;;;;;5117412;28;20609;-79
2022/01/12 00:35:02;;;;;;;6.45;3.13;;;4.80;99.90;;;;;;5105734;28;20223;-80
2022/01/12 00:37:30;;;;;;;4.60;2.38;;;4.60;99.90;;;;;;5101764;28;20194;-78
2022/01/12 00:39:59;;;;;;;2.85;2.60;;;4.60;99.90;;;;;;5099262;28;20657;-78
2022/01/12 00:42:29;;;;;;;4.88;3.28;;;4.90;99.90;;;;;;5098079;28;20197;-78
2022/01/12 00:45:00;;;;;;;3.70;2.63;;;4.60;99.90;;;;;;5100443;28;20839;-78
2022/01/12 00:47:29;;;;;;;4.95;2.95;;;4.60;99.90;;;;;;5105346;28;20220;-78
2022/01/12 00:49:57;;;;;;;4.60;2.75;;;4.60;99.90;;;;;;5097524;28;20201;-77
2022/01/12 00:52:25;;;;;;;3.10;2.22;;;4.60;99.90;;;;;;5103344;28;20205;-78
2022/01/12 00:54:53;;;;;;;2.88;2.67;;;4.60;99.90;;;;;;5103201;28;20208;-79
2022/01/12 00:57:22;;;;;;;4.88;2.92;;;4.60;99.90;;;;;;5106919;28;20202;-80
2022/01/12 00:59:51;;;;;;;3.40;1.85;;;4.60;99.90;;;;;;5091746;28;20210;-79
2022/01/12 01:02:19;;;;;;;3.40;2.80;;;4.60;99.90;;;;;;5100990;28;20209;-79
2022/01/12 01:04:47;;;;;;;4.15;2.60;;;4.60;99.90;;;;;;5104600;28;20224;-80
2022/01/12 01:07:17;;;;;;;4.35;3.08;;;4.60;99.90;;;;;;5107528;28;20192;-78
2022/01/12 01:09:54;;;;;;;2.03;1.77;;;4.60;99.90;;;;;;5108907;28;20199;-79
2022/01/12 01:12:23;;;;;;;3.13;2.65;;;4.70;99.90;;;;;;5098815;28;20210;-80
2022/01/12 01:15:03;;;;;;;3.55;2.50;;;4.60;99.90;;;;;;5108796;28;20277;-80
2022/01/12 01:25:52;;;;;;;3.00;2.42;;;4.50;99.90;;;;;;5103255;28;20242;-78
2022/01/12 01:28:21;;;;;;;4.13;2.95;;;4.70;99.90;;;;;;5108487;28;20688;-78
2022/01/12 01:30:50;;;;;;;2.75;2.50;;;4.60;99.90;;;;;;5106241;28;20676;-78
2022/01/12 01:33:22;;;;;;;3.55;2.53;;;4.50;99.90;;;;;;5110171;28;20329;-77
2022/01/12 01:35:55;;;;;;;3.80;3.17;;;4.50;99.90;;;;;;5108223;28;20196;-78
2022/01/12 01:38:24;;;;;;;4.00;2.38;;;4.50;99.90;;;;;;5108006;28;20569;-79
2022/01/12 01:40:52;;;;;;;4.55;2.65;;;4.50;99.90;;;;;;5104097;28;20202;-78
2022/01/12 01:43:28;;;;;;;3.38;2.40;;;4.50;99.90;;;;;;5104406;28;20212;-78
2022/01/12 01:54:15;;;;;;;3.47;1.75;;;4.80;99.90;;;;;;5065808;27;20233;-78
2022/01/12 01:56:43;;;;;;;2.22;1.95;;;4.60;99.90;;;;;;5102338;28;20704;-78
2022/01/12 01:59:11;;;;;;;4.50;3.25;;;4.50;99.90;;;;;;5104399;28;20272;-79
2022/01/12 02:01:41;;;;;;;3.58;2.38;;;4.50;99.90;;;;;;5109050;28;20206;-77
2022/01/12 02:04:09;;;;;;;2.38;2.10;;;4.50;99.90;;;;;;5106216;28;20225;-78
2022/01/12 02:06:38;;;;;;;2.20;2.00;;;4.40;99.90;;;;;;5107910;28;20212;-79
2022/01/12 02:09:06;;;;;;;3.00;1.63;;;4.50;99.90;;;;;;5105852;28;20669;-78
2022/01/12 02:11:34;;;;;;;3.75;1.92;;;4.40;99.90;;;;;;5100878;28;20202;-79
2022/01/12 02:14:03;;;;;;;3.33;2.00;;;4.40;99.90;;;;;;5105994;28;20213;-78
2022/01/12 02:16:38;;;;;;;1.88;1.60;;;4.40;99.90;;;;;;5103119;28;20553;-79
2022/01/12 02:19:19;;;;;;;2.65;1.80;;;4.50;99.90;;;;;;5109566;28;20205;-78
2022/01/12 02:35:50;;;;;;;3.35;1.95;;;4.50;99.90;;;;;;5114912;27;20668;-78
2022/01/12 02:41:07;;;;;;;3.33;2.80;;;4.30;99.90;;;;;;5105982;28;20205;-79
2022/01/12 02:50:35;;;;;;;3.67;2.03;;;4.10;99.90;;;;;;5103413;28;20224;-78
2022/01/12 02:54:49;;;;;;;5.30;2.95;;;3.90;99.90;;;;;;5107277;28;20299;-77
2022/01/12 02:57:18;;;;;;;2.03;1.90;;;3.90;99.90;;;;;;5104136;28;20666;-78
2022/01/12 03:00:02;;;;;;;4.90;3.35;;;3.90;99.90;;;;;;5100293;28;20729;-79
2022/01/12 03:02:33;;;;;;;2.50;2.10;;;3.90;99.90;;;;;;5101218;27;20198;-79
2022/01/12 03:05:20;;;;;;;5.28;2.83;;;3.90;99.90;;;;;;5107921;28;20223;-79
2022/01/12 03:07:48;;;;;;;4.32;2.42;;;4.00;99.90;;;;;;5098193;28;20226;-79
2022/01/12 03:10:18;;;;;;;3.85;3.40;;;4.00;99.90;;;;;;5107143;28;20202;-78
2022/01/12 03:12:47;;;;;;;3.85;3.38;;;3.90;99.90;;;;;;5107291;28;20283;-78
2022/01/12 03:15:15;;;;;;;4.05;3.15;;;3.90;99.90;;;;;;5106365;28;20788;-79
2022/01/12 03:17:43;;;;;;;3.15;2.78;;;3.90;99.90;;;;;;5104821;28;20203;-79
2022/01/12 03:20:12;;;;;;;4.07;3.67;;;4.10;99.90;;;;;;5107306;28;20187;-79
2022/01/12 03:22:40;;;;;;;4.57;3.33;;;3.90;99.90;;;;;;5100463;28;20205;-78
2022/01/12 03:25:09;;;;;;;4.15;3.53;;;3.90;99.90;;;;;;5107383;28;20220;-79
2022/01/12 03:27:39;;;;;;;4.20;3.80;;;3.90;99.90;;;;;;5102177;28;20667;-79
2022/01/12 03:30:08;;;;;;;4.93;3.95;;;4.10;99.90;;;;;;5107649;28;20206;-79
2022/01/12 03:32:42;;;;;;;4.85;3.78;;;3.80;99.90;;;;;;5103884;28;20195;-79
2022/01/12 03:35:23;;;;;;;4.32;3.67;;;3.80;99.90;;;;;;5103399;28;20642;-79
2022/01/12 03:38:19;;;;;;;4.43;3.92;;;3.80;99.90;;;;;;5100290;28;20196;-79
2022/01/12 03:40:42;;;;;;;6.03;4.65;;;3.80;99.90;;;;;;5107102;28;20404;-78
2022/01/12 03:43:12;;;;;;;6.00;3.67;;;3.90;99.90;;;;;;5103060;28;20202;-79
2022/01/12 03:45:40;;;;;;;5.40;3.47;;;3.80;99.90;;;;;;5106706;28;20296;-78
2022/01/12 03:48:09;;;;;;;5.35;2.97;;;3.90;99.90;;;;;;5104874;28;20234;-79
2022/01/12 03:50:37;;;;;;;8.50;4.75;;;3.70;99.90;;;;;;5103462;28;20208;-78
2022/01/12 03:53:05;;;;;;;4.88;3.30;;;3.80;99.90;;;;;;5106200;28;20325;-78
2022/01/12 03:55:34;;;;;;;4.00;3.53;;;3.70;99.90;;;;;;5107806;28;20196;-78
2022/01/12 03:58:02;;;;;;;4.63;3.40;;;3.80;99.90;;;;;;5103332;28;20209;-78
2022/01/12 04:00:31;;;;;;;5.47;3.33;;;3.60;99.90;;;;;;5102382;28;20197;-78
2022/01/12 04:03:03;;;;;;;4.15;3.75;;;3.60;99.90;;;;;;5101997;28;20201;-79
2022/01/12 04:08:18;;;;;;;5.78;3.70;;;3.50;99.90;;;;;;5097816;28;20280;-78
2022/01/12 04:08:20;;;;;;;2.90;2.58;;;3.50;99.90;;;;;;5100227;28;20254;-79
2022/01/12 04:10:48;;;;;;;4.95;3.00;;;3.50;99.90;;;;;;5102159;28;20212;-79
2022/01/12 04:13:17;;;;;;;7.80;4.00;;;3.40;99.90;;;;;;5108915;28;20199;-78
2022/01/12 04:15:50;;;;;;;4.47;3.33;;;3.40;99.90;;;;;;5102674;28;20205;-78
2022/01/12 04:18:18;;;;;;;4.22;3.75;;;3.60;99.90;;;;;;5105472;28;20202;-78
2022/01/12 04:20:48;;;;;;;4.70;4.20;;;3.70;99.90;;;;;;5100742;28;20205;-77
2022/01/12 04:23:18;;;;;;;5.32;3.65;;;3.50;99.90;;;;;;5106317;28;20199;-77
2022/01/12 04:25:47;;;;;;;7.70;3.78;;;3.50;99.90;;;;;;5102802;28;20209;-77
2022/01/12 04:28:17;;;;;;;5.60;5.15;;;3.40;99.90;;;;;;5101840;28;20281;-78
2022/01/12 04:30:47;;;;;;;4.90;3.67;;;3.70;99.90;;;;;;5103409;28;20200;-79
2022/01/12 04:33:16;;;;;;;6.45;4.00;;;3.40;99.90;;;;;;5103822;28;20201;-78
2022/01/12 04:35:48;;;;;;;5.28;4.00;;;3.40;99.90;;;;;;5104949;28;20727;-78
2022/01/12 04:38:17;;;;;;;5.90;4.60;;;3.40;99.90;;;;;;5096645;28;20203;-79
2022/01/12 04:40:46;;;;;;;4.47;3.60;;;3.30;99.90;;;;;;5107636;28;20191;-78
2022/01/12 04:43:17;;;;;;;6.78;4.90;;;3.30;99.90;;;;;;5107210;28;20256;-81
2022/01/12 04:46:09;;;;;;;4.95;4.40;;;3.20;99.90;;;;;;5107378;28;20218;-79
2022/01/12 04:48:50;;;;;;;4.85;3.50;;;3.50;99.90;;;;;;5102402;28;20518;-79
2022/01/12 04:51:19;;;;;;;4.53;3.33;;;3.20;99.90;;;;;;5109575;28;20208;-79
2022/01/12 04:53:48;;;;;;;7.03;4.00;;;3.20;99.90;;;;;;5102576;28;20220;-79
2022/01/12 04:56:16;;;;;;;4.75;3.72;;;3.10;99.90;;;;;;5106111;28;20192;-78
2022/01/12 04:58:44;;;;;;;6.10;3.70;;;3.10;99.90;;;;;;5107364;28;20242;-78
2022/01/12 05:01:23;;;;;;;7.95;4.22;;;3.10;99.90;;;;;;5104052;28;20188;-78
2022/01/12 05:06:45;;;;;;;5.25;4.05;;;3.10;99.90;;;;;;5107758;28;20273;-80
2022/01/12 05:09:28;;;;;;;6.13;5.53;;;3.30;99.90;;;;;;5102385;28;20245;-78
2022/01/12 05:14:47;;;;;;;7.35;4.50;;;3.00;99.90;;;;;;5103397;28;20465;-78
2022/01/12 05:17:17;;;;;;;6.50;4.22;;;3.00;99.90;;;;;;5116019;27;20188;-78
2022/01/12 05:19:45;;;;;;;6.32;4.25;;;3.10;99.90;;;;;;5104445;28;20195;-78
2022/01/12 05:22:13;;;;;;;7.13;4.40;;;2.90;99.90;;;;;;5105703;28;20223;-79
2022/01/12 05:24:42;;;;;;;4.22;3.80;;;2.90;99.90;;;;;;5106696;28;20224;-79
2022/01/12 05:27:26;;;;;;;7.25;4.00;;;2.90;99.90;;;;;;5100557;28;20731;-78
2022/01/12 05:29:54;;;;;;;5.32;4.55;;;3.20;99.90;;;;;;5110486;28;20679;-77
2022/01/12 05:32:26;;;;;;;5.60;4.25;;;2.90;99.90;;;;;;5106050;28;20283;-77
2022/01/12 05:34:58;;;;;;;5.13;3.83;;;2.90;99.90;;;;;;5107409;28;20307;-77
2022/01/12 05:37:26;;;;;;;6.30;3.80;;;2.90;99.90;;;;;;5097779;28;20276;-77
2022/01/12 05:39:55;;;;;;;7.53;4.25;;;2.80;99.90;;;;;;5106099;28;20678;-77
2022/01/12 05:42:27;;;;;;;6.88;4.75;;;2.80;99.90;;;;;;5106181;28;20596;-78
2022/01/12 05:44:55;;;;;;;7.57;4.18;;;2.80;99.90;;;;;;5103670;28;20247;-78
2022/01/12 05:49:33;;;;;;;7.63;4.85;;;2.80;99.90;;;;;;5098001;28;20611;-77
2022/01/12 05:50:25;;;;;;;4.78;3.75;;;2.80;99.90;;;;;;5101408;28;20202;-77
2022/01/12 05:52:54;;;;;;;7.18;4.72;;;2.80;99.90;;;;;;5101465;28;20740;-78
2022/01/12 05:55:22;;;;;;;5.25;4.40;;;2.80;99.90;;;;;;5103786;28;20306;-78
2022/01/12 05:57:50;;;;;;;4.05;3.65;;;2.70;99.90;;;;;;5104839;28;20315;-78
2022/01/12 06:00:20;;;;;;;6.00;4.40;;;2.70;99.90;;;;;;5105728;28;20349;-78
2022/01/12 06:02:50;;;;;;;7.68;4.53;;;2.70;99.90;;;;;;5109542;28;20206;-77
2022/01/12 06:05:20;;;;;;;6.03;3.67;;;2.70;99.90;;;;;;5105583;28;20301;-77
2022/01/12 06:07:50;;;;;;;9.40;4.45;;;2.70;99.90;;;;;;5101792;28;20305;-80
2022/01/12 06:10:21;;;;;;;7.53;4.18;;;2.70;99.90;;;;;;5103135;28;20545;-77
2022/01/12 06:12:49;;;;;;;4.95;4.38;;;2.80;99.90;;;;;;5104125;28;20284;-78
2022/01/12 06:15:19;;;;;;;9.23;5.18;;;2.80;99.90;;;;;;5105747;28;20227;-77
2022/01/12 06:17:48;;;;;;;7.35;4.75;;;2.70;99.90;;;;;;5107788;27;20199;-77
2022/01/12 06:20:19;;;;;;;5.40;4.30;;;3.00;99.90;;;;;;5114819;27;20203;-77
2022/01/12 06:22:47;;;;;;;8.82;4.70;;;3.10;99.90;;;;;;5110588;28;20271;-77
2022/01/12 06:25:16;;;;;;;7.47;4.43;;;2.80;99.90;;;;;;5106847;28;20950;-77
2022/01/12 06:27:52;;;;;;;7.85;4.53;;;2.70;99.90;;;;;;5107455;28;20646;-77
2022/01/12 06:33:16;;;;;;;9.40;4.72;;;2.60;99.90;;;;;;5071457;28;20685;-78
2022/01/12 06:35:46;;;;;;;4.85;3.50;;;2.60;99.90;;;;;;5109512;28;20207;-77
2022/01/12 06:38:14;;;;;;;6.57;4.57;;;2.60;99.90;;;;;;5097091;28;20262;-77
2022/01/12 06:40:44;;;;;;;7.57;4.53;;;2.60;99.90;;;;;;5107612;28;20204;-78
2022/01/12 06:43:12;;;;;;;5.30;4.60;;;2.60;99.90;;;;;;5099608;28;20201;-77
2022/01/12 06:45:40;;;;;;;7.53;5.20;;;2.90;99.90;;;;;;5108995;28;20718;-78
2022/01/12 06:48:09;;;;;;;9.02;5.13;;;2.50;99.90;;;;;;5094915;28;20219;-78
2022/01/12 06:50:37;;;;;;;8.27;4.82;;;2.50;99.90;;;;;;5099961;28;20202;-78
2022/01/12 06:53:06;;;;;;;6.75;4.95;;;2.70;99.90;;;;;;5100659;28;20209;-78
2022/01/12 06:55:34;;;;;;;8.10;4.07;;;2.80;99.90;;;;;;5100170;28;20256;-78
2022/01/12 06:58:03;;;;;;;6.65;4.65;;;2.50;99.90;;;;;;5101332;28;20193;-77
2022/01/12 07:00:31;;;;;;;5.90;4.40;;;2.50;99.90;;;;;;5102862;28;20204;-77
2022/01/12 07:03:00;;;;;;;4.60;4.20;;;2.50;99.90;;;;;;5096395;28;20200;-79
2022/01/12 07:05:29;;;;;;;8.30;6.07;;;2.50;99.90;;;;;;5100664;28;20507;-77
2022/01/12 07:07:57;;;;;;;8.43;5.00;;;2.60;99.90;;;;;;5097147;28;20218;-77
2022/01/12 07:10:27;;;;;;;8.00;5.03;;;2.60;99.90;;;;;;5101877;28;20201;-77
2022/01/12 07:12:55;;;;;;;7.30;4.47;;;2.60;99.90;;;;;;5101282;28;20198;-77
2022/01/12 07:15:24;;;;;;;5.78;5.03;;;2.60;99.90;;;;;;5100969;27;20218;-77
2022/01/12 07:17:52;;;;;;;9.57;6.10;;;2.60;99.90;;;;;;5097801;27;20196;-77
2022/01/12 07:20:20;;;;;;;5.05;3.90;;;2.60;99.90;;;;;;5101275;28;20281;-77
2022/01/12 07:22:49;;;;;;;5.90;5.13;;;2.60;99.90;;;;;;5101151;28;20291;-77
2022/01/12 07:25:17;;;;;;;6.82;5.00;;;2.60;99.90;;;;;;5100116;28;20315;-77
2022/01/12 07:27:47;;;;;;;5.15;4.40;;;2.50;99.90;;;;;;5100907;28;21037;-80
2022/01/12 07:30:15;;;;;;;6.65;4.65;;;2.80;99.90;;;;;;5103174;28;20197;-79
2022/01/12 07:32:43;;;;;;;6.53;3.83;;;2.60;99.90;;;;;;5099390;28;20207;-81
2022/01/12 07:35:12;;;;;;;6.32;4.15;;;2.70;99.90;;;;;;5102569;27;20223;-80
2022/01/12 07:37:40;;;;;;;13.90;5.28;;;2.70;99.90;;;;;;5100635;28;20198;-80
2022/01/12 07:40:09;;;;;;;6.15;5.50;;;2.70;99.90;;;;;;5099443;28;20824;-80
2022/01/12 07:42:37;;;;;;;9.43;5.43;;;2.70;99.90;;;;;;5100593;28;20210;-80
2022/01/12 07:45:08;;;;;;;8.43;5.32;;;2.80;99.90;;;;;;5104296;28;20613;-80
2022/01/12 07:47:36;;;;;;;5.22;4.38;;;2.80;99.90;;;;;;5104550;28;20222;-81
2022/01/12 07:50:07;;;;;;;7.88;5.65;;;2.70;99.90;;;;;;5091895;28;20216;-80
2022/01/12 07:52:35;;;;;;;7.55;6.60;;;2.70;99.90;;;;;;5102433;28;20188;-80
2022/01/12 07:55:05;;;;;;;9.35;6.78;;;2.70;99.90;;;;;;5099570;28;20218;-80
2022/01/12 07:57:33;;;;;;;9.07;5.75;;;2.70;99.90;;;;;;5092516;28;20197;-80
2022/01/12 08:00:03;;;;;;;8.85;6.38;;;2.80;99.90;;;;;;5098207;28;20198;-80
2022/01/12 08:02:33;;;;;;;11.20;6.18;;;2.80;99.90;;;;;;5095814;28;20513;-80
2022/01/12 08:05:01;;;;;;;11.32;6.38;;;2.80;99.90;;;;;;5101764;28;20226;-80
2022/01/12 08:07:35;;;;;;;13.05;8.30;;;2.80;99.90;;;;;;5102365;28;20443;-79
2022/01/12 08:10:04;;;;;;;10.70;7.85;;;2.80;99.90;;;;;;5103735;28;20591;-78
2022/01/12 08:12:33;;;;;;;8.05;5.88;;;2.80;99.90;;;;;;5099325;28;20207;-78
2022/01/12 08:15:01;;;;;;;8.23;5.60;;;2.90;99.90;;;;;;5103926;28;20225;-78
2022/01/12 08:17:29;;;;;;;8.68;5.72;;;3.10;99.90;;;;;;5099674;27;20655;-78
2022/01/12 08:20:00;;;;;;;11.73;6.05;;;3.30;99.90;;;;;;5104912;28;20191;-78
2022/01/12 08:22:29;;;;;;;8.07;6.30;;;3.10;99.90;;;;;;5099641;27;20195;-78
2022/01/12 08:24:57;;;;;;;6.50;5.88;;;3.40;99.90;;;;;;5105690;28;20211;-78
2022/01/12 08:27:25;;;;;;;10.85;7.80;;;3.30;99.90;;;;;;5106210;28;20192;-78
2022/01/12 08:29:59;;;;;;;9.30;6.53;;;3.30;99.90;;;;;;5107454;28;20198;-78
2022/01/12 08:32:28;;;;;;;10.05;5.93;;;3.50;99.90;;;;;;5105073;28;20701;-78
2022/01/12 08:34:56;;;;;;;9.07;5.57;;;3.30;99.90;;;;;;5102748;28;20707;-77
2022/01/12 08:37:26;;;;;;;15.02;6.10;;;3.30;99.90;;;;;;5103258;28;20201;-78
2022/01/12 08:39:54;;;;;;;9.25;5.07;;;3.40;99.90;;;;;;5107361;28;20325;-76
2022/01/12 08:42:23;;;;;;;7.63;5.68;;;3.40;99.90;;;;;;5103316;27;20288;-77
2022/01/12 08:44:51;;;;;;;7.15;5.40;;;3.70;99.90;;;;;;5103982;28;20247;-78
2022/01/12 08:47:19;;;;;;;9.13;5.00;;;3.60;99.90;;;;;;5111807;27;20204;-78
2022/01/12 08:49:48;;;;;;;7.53;5.93;;;3.70;99.90;;;;;;5106749;28;20236;-78
2022/01/12 08:52:22;;;;;;;7.22;5.57;;;4.10;99.90;;;;;;5107443;27;20214;-78
2022/01/12 08:54:53;;;;;;;7.82;5.70;;;3.90;99.90;;;;;;5098384;28;20639;-79
2022/01/12 08:57:21;;;;;;;6.18;5.13;;;4.20;99.90;;;;;;5101541;28;20203;-77
2022/01/12 08:59:49;;;;;;;7.18;4.70;;;4.00;99.90;;;;;;5101509;28;20193;-79
2022/01/12 09:02:18;;;;;;;8.20;5.45;;;4.00;99.90;;;;;;5108312;28;20198;-81
2022/01/12 09:04:46;;;;;;;7.70;5.80;;;4.10;99.90;;;;;;5110919;28;20224;-78
2022/01/12 09:07:14;;;;;;;8.30;5.72;;;4.10;99.90;;;;;;5105104;28;20195;-78
2022/01/12 09:09:43;;;;;;;6.18;4.82;;;4.10;99.90;;;;;;5103231;28;20217;-77
2022/01/12 09:12:13;;;;;;;9.20;5.78;;;3.90;99.90;;;;;;5105081;27;20216;-78
2022/01/12 09:14:41;;;;;;;8.93;6.60;;;3.70;99.90;;;;;;5101956;27;20248;-77
2022/01/12 09:17:16;;;;;;;6.40;4.80;;;3.90;99.90;;;;;;5101559;27;20200;-78
2022/01/12 09:19:44;;;;;;;5.82;4.47;;;3.90;99.90;;;;;;5107128;27;20210;-77
2022/01/12 09:22:13;;;;;;;10.60;5.15;;;4.10;99.90;;;;;;5107090;28;20199;-78
2022/01/12 09:24:44;;;;;;;5.50;4.45;;;4.10;99.90;;;;;;5107223;28;20229;-78
2022/01/12 09:27:14;;;;;;;7.13;5.60;;;4.40;99.90;;;;;;5097299;28;20199;-78
2022/01/12 09:29:43;;;;;;;7.10;4.05;;;4.30;99.90;;;;;;5101952;28;20231;-79
2022/01/12 09:32:12;;;;;;;6.03;5.35;;;4.30;99.90;;;;;;5102762;28;20730;-78
2022/01/12 09:34:40;;;;;;;5.82;4.30;;;4.30;99.90;;;;;;5102429;28;20226;-78
2022/01/12 09:37:09;;;;;;;5.55;3.85;;;4.10;99.90;;;;;;5100604;28;20228;-79
2022/01/12 09:39:37;;;;;;;6.43;5.70;;;4.20;99.90;;;;;;5094091;28;20193;-78
2022/01/12 09:42:06;;;;;;;6.00;4.28;;;4.20;99.90;;;;;;5099744;28;20210;-78
2022/01/12 09:44:38;;;;;;;6.85;4.15;;;4.10;99.90;;;;;;5097891;28;20219;-77
2022/01/12 09:47:07;;;;;;;7.35;5.03;;;4.10;99.90;;;;;;5106573;28;20207;-78
2022/01/12 09:49:36;;;;;;;9.25;5.80;;;4.20;99.90;;;;;;5099579;28;20260;-78
2022/01/12 09:52:05;;;;;;;7.10;5.05;;;4.30;99.90;;;;;;5102228;28;20202;-77
2022/01/12 09:54:33;;;;;;;4.95;4.50;;;4.30;99.90;;;;;;5096544;28;20229;-78
2022/01/12 09:57:01;;;;;;;7.97;4.43;;;4.20;99.90;;;;;;5107613;27;20205;-78
2022/01/12 09:59:29;;;;;;;8.85;5.60;;;4.50;99.90;;;;;;5100490;28;20203;-78
2022/01/12 10:02:00;;;;;;;5.60;4.05;;;5.00;99.90;;;;;;5102133;28;20757;-77
2022/01/12 10:04:30;;;;;;;7.03;4.85;;;5.30;99.90;;;;;;5098711;28;20236;-79
2022/01/12 10:07:01;;;;;;;5.38;4.63;;;5.60;99.90;;;;;;5101932;28;20193;-79
2022/01/12 10:09:33;;;;;;;6.45;5.03;;;5.80;99.90;;;;;;5100660;28;20231;-79
2022/01/12 10:12:05;;;;;;;4.82;4.20;;;6.20;99.90;;;;;;5099730;28;20571;-78
2022/01/12 10:14:42;;;;;;;5.07;4.57;;;6.50;99.90;;;;;;5104933;28;20215;-78
2022/01/12 10:17:14;;;;;;;5.23;4.53;;;6.70;99.90;;;;;;5102356;27;20685;-78
2022/01/12 10:19:42;;;;;;;4.60;3.50;;;7.00;99.90;;;;;;5096916;28;20452;-79
2022/01/12 10:22:14;;;;;;;3.83;3.50;;;7.30;99.90;;;;;;5099857;28;20456;-77
2022/01/12 10:24:45;;;;;;;4.43;3.93;;;7.40;99.90;;;;;;5099210;28;20472;-78
2022/01/12 10:27:15;;;;;;;5.80;3.73;;;7.60;99.90;;;;;;5098858;28;20529;-78
2022/01/12 10:29:44;;;;;;;6.40;3.13;;;7.40;98.40;;;;;;5097045;28;20562;-78
2022/01/12 10:32:18;;;;;;;7.47;4.50;;;7.50;99.90;;;;;;5100280;28;20447;-78
2022/01/12 10:34:48;;;;;;;6.43;5.53;;;7.60;99.60;;;;;;5107912;28;20473;-79
2022/01/12 10:37:19;;;;;;;7.17;4.83;;;7.70;99.90;;;;;;5099859;28;20484;-79
2022/01/12 10:39:49;;;;;;;5.00;3.83;;;7.70;96.00;;;;;;5109281;28;20982;-80
2022/01/12 10:42:20;;;;;;;4.77;4.37;;;7.80;99.50;;;;;;5107762;28;20455;-79
2022/01/12 10:44:50;;;;;;;6.37;3.73;;;8.00;99.80;;;;;;5104725;28;21062;-79
2022/01/12 10:47:21;;;;;;;4.97;4.40;;;7.90;98.90;;;;;;5106055;28;20454;-80
2022/01/12 10:50:00;;;;;;;5.80;4.70;;;8.10;99.90;;;;;;5105971;28;20478;-78
2022/01/12 10:52:30;;;;;;;6.40;4.87;;;8.20;99.80;;;;;;5102415;28;20448;-78
2022/01/12 10:55:01;;;;;;;6.60;4.70;;;8.30;99.90;;;;;;5103816;27;20482;-77
2022/01/12 10:57:31;;;;;;;5.27;4.10;;;8.40;99.90;;;;;;5102392;28;20966;-78
2022/01/12 11:00:09;;;;;;;5.53;4.80;;;8.40;99.90;;;;;;5100543;28;20451;-79
2022/01/12 11:02:40;;;;;;;8.40;5.20;;;8.40;99.60;;;;;;5102141;27;20465;-79
2022/01/12 11:05:10;;;;;;;4.20;3.80;;;8.40;96.80;;;;;;5095897;28;20481;-79
2022/01/12 11:07:38;;;;;;;6.40;4.87;;;8.40;99.90;;;;;;5093492;28;20666;-78
2022/01/12 11:10:09;;;;;;;6.77;4.73;;;8.50;98.60;;;;;;5101621;28;20465;-79
2022/01/12 11:12:38;;;;;;;5.30;4.00;;;8.60;97.70;;;;;;5104574;28;20479;-78
2022/01/12 11:15:08;;;;;;;5.70;3.70;;;8.70;97.90;;;;;;5104135;28;21002;-78
2022/01/12 11:17:39;;;;;;;4.10;3.80;;;8.90;99.90;;;;;;5103859;28;20445;-78
2022/01/12 11:20:15;;;;;;;6.90;4.50;;;9.00;99.90;;;;;;5102603;28;21035;-79
2022/01/12 11:22:55;;;;;;;4.90;3.73;;;9.20;99.90;;;;;;5101900;28;20449;-78
2022/01/12 11:25:25;;;;;;;5.13;3.70;;;9.30;98.00;;;;;;5105893;27;20473;-79
2022/01/12 11:28:05;;;;;;;4.33;3.23;;;9.50;99.90;;;;;;5105400;28;20464;-79
2022/01/12 11:30:34;;;;;;;6.17;4.43;;;9.70;99.90;;;;;;5097534;28;20555;-79
2022/01/12 11:33:06;;;;;;;5.90;4.53;;;9.80;98.70;;;;;;5112260;27;20848;-79
2022/01/12 11:35:37;;;;;;;4.60;3.97;;;9.70;96.50;;;;;;5102930;28;20539;-78
2022/01/12 11:38:05;;;;;;;5.00;4.20;;;9.80;96.70;;;;;;5102705;28;20460;-78
2022/01/12 11:40:39;;;;;;;4.50;4.07;;;9.70;96.50;;;;;;5104802;28;20444;-79
2022/01/12 11:43:19;;;;;;;4.80;3.80;;;9.60;99.90;;;;;;5101435;28;20448;-78
2022/01/12 11:46:00;;;;;;;3.60;3.30;;;9.60;96.30;;;;;;5102231;27;20438;-79
2022/01/12 11:48:35;;;;;;;5.97;4.10;;;9.50;96.60;;;;;;5100246;28;20455;-79
2022/01/12 11:51:04;;;;;;;4.80;3.37;;;9.40;99.90;;;;;;5101975;28;21308;-79
2022/01/12 11:53:32;;;;;;;5.87;4.00;;;9.30;99.90;;;;;;5099286;28;20481;-79
2022/01/12 11:56:20;;;;;;;8.43;5.60;;;9.20;92.30;;;;;;5099167;28;20474;-80
2022/01/12 11:58:57;;;;;;;4.10;3.70;;;9.10;90.30;;;;;;5111507;27;20454;-79
2022/01/12 12:01:43;;;;;;;5.37;3.17;;;9.00;88.70;;;;;;5105499;28;20456;-78
2022/01/12 12:04:25;;;;;;;5.67;3.10;;;9.00;90.10;;;;;;5101701;28;20465;-79
2022/01/12 12:07:08;;;;;;;8.43;4.20;;;9.00;98.10;;;;;;5104371;28;20483;-78
2022/01/12 12:09:43;;;;;;;6.33;4.70;;;9.00;88.60;;;;;;5103514;28;21016;-77
2022/01/12 12:12:17;;;;;;;4.93;4.10;;;8.90;84.20;;;;;;5097672;28;20458;-79
2022/01/12 12:14:47;;;;;;;3.93;3.53;;;8.70;83.50;;;;;;5099676;28;20482;-78
2022/01/12 12:17:15;;;;;;;5.50;4.67;;;9.00;85.40;;;;;;5100805;28;20453;-78
2022/01/12 12:19:45;;;;;;;4.90;3.30;;;8.80;88.80;;;;;;5096154;28;20461;-79
2022/01/12 12:22:16;;;;;;;5.40;4.33;;;8.70;86.30;;;;;;5103989;28;21014;-76
2022/01/12 12:24:48;;;;;;;5.23;3.47;;;9.10;86.00;;;;;;5103910;28;20478;-75
2022/01/12 12:27:19;;;;;;;4.60;3.87;;;8.80;89.90;;;;;;5102762;28;20455;-77
2022/01/12 12:29:49;;;;;;;6.50;4.17;;;8.70;87.70;;;;;;5103411;28;20474;-77
2022/01/12 12:32:19;;;;;;;6.60;3.60;;;8.80;90.20;;;;;;5098970;28;20458;-78
2022/01/12 12:35:00;;;;;;;6.67;4.93;;;8.80;88.60;;;;;;5105626;28;20516;-79
2022/01/12 12:37:35;;;;;;;5.17;4.17;;;8.90;87.30;;;;;;5099749;28;20451;-77
2022/01/12 12:40:14;;;;;;;6.47;4.10;;;8.80;83.60;;;;;;5106057;28;20470;-78
2022/01/12 12:42:42;;;;;;;5.20;4.23;;;8.80;86.50;;;;;;5104556;28;20462;-77
2022/01/12 12:45:11;;;;;;;7.27;4.73;;;8.80;88.80;;;;;;5098067;28;20491;-77
2022/01/12 12:47:40;;;;;;;5.93;4.47;;;8.80;88.20;;;;;;5101119;28;20541;-79
2022/01/12 12:50:14;;;;;;;6.23;5.33;;;8.80;87.80;;;;;;5094147;28;20464;-79
2022/01/12 12:52:42;;;;;;;6.63;5.17;;;8.70;82.00;;;;;;5096937;28;20453;-80
2022/01/12 12:55:16;;;;;;;6.03;4.13;;;8.80;84.50;;;;;;5095228;28;20494;-80
2022/01/12 12:57:49;;;;;;;6.17;4.60;;;8.80;81.00;;;;;;5095157;28;20894;-78
2022/01/12 13:00:21;;;;;;;9.90;5.03;;;8.70;81.10;;;;;;5092020;28;20446;-79
2022/01/12 13:02:53;;;;;;;4.77;3.80;;;8.70;79.70;;;;;;5096202;28;20459;-78
2022/01/12 13:05:24;;;;;;;6.20;4.70;;;8.70;84.20;;;;;;5101636;28;20467;-78
2022/01/12 13:07:53;;;;;;;6.47;4.03;;;9.10;82.70;;;;;;5101471;27;20454;-77
2022/01/12 13:10:24;;;;;;;6.40;4.60;;;8.90;85.80;;;;;;5097374;28;20558;-79
2022/01/12 13:12:54;;;;;;;5.40;4.70;;;8.90;85.50;;;;;;5101722;28;20881;-77
2022/01/12 13:15:24;;;;;;;5.20;4.53;;;8.90;86.10;;;;;;5102368;28;20493;-78
2022/01/12 13:18:01;;;;;;;6.63;3.93;;;9.00;86.60;;;;;;5098846;28;20466;-78
2022/01/12 13:23:21;;;;;;;5.70;4.37;;;8.80;78.10;;;;;;5104104;28;20457;-80
2022/01/12 13:25:50;;;;;;;6.38;5.57;;;8.80;82.30;;;;;;5104038;28;20507;-79
2022/01/12 13:28:19;;;;;;;5.77;5.17;;;8.80;80.90;;;;;;5100961;27;20207;-79
2022/01/12 13:30:50;;;;;;;6.00;3.90;;;8.80;83.50;;;;;;5098797;28;20470;-79
2022/01/12 13:33:28;;;;;;;7.60;4.97;;;8.80;80.90;;;;;;5105255;28;20484;-79
2022/01/12 13:35:58;;;;;;;6.72;5.10;;;8.80;77.30;;;;;;5101856;28;20448;-79
2022/01/12 13:38:30;;;;;;;7.30;5.60;;;8.80;82.20;;;;;;5090637;28;20446;-78
2022/01/12 13:41:07;;;;;;;8.15;5.68;;;8.90;82.00;;;;;;5104780;28;20822;-77
2022/01/12 13:43:36;;;;;;;6.10;4.87;;;9.00;85.30;;;;;;5115933;27;20214;-77
2022/01/12 13:46:12;;;;;;;7.37;5.80;;;9.10;84.10;;;;;;5102654;27;20521;-78
2022/01/12 13:49:06;;;;;;;5.60;4.97;;;9.10;85.00;;;;;;5099494;28;20552;-79
2022/01/12 13:51:39;;;;;;;10.77;6.40;;;9.10;82.60;;;;;;5107008;27;20469;-78
2022/01/12 13:54:09;;;;;;;5.67;4.97;;;9.00;80.60;;;;;;5115113;27;20865;-78
2022/01/12 13:56:39;;;;;;;5.70;4.90;;;9.10;81.70;;;;;;5097111;28;20515;-79
2022/01/12 13:59:07;;;;;;;8.90;5.75;;;9.00;84.40;;;;;;5100312;28;20435;-78
2022/01/12 14:01:37;;;;;;;5.33;4.53;;;9.00;83.10;;;;;;5107262;28;20194;-78
2022/01/12 14:04:12;;;;;;;4.70;3.97;;;9.10;81.40;;;;;;5102486;28;20558;-78
2022/01/12 14:06:46;;;;;;;6.30;4.68;;;9.10;85.90;;;;;;5112055;27;20435;-79
2022/01/12 14:09:24;;;;;;;5.90;5.10;;;9.10;85.00;;;;;;5103910;27;20695;-78
2022/01/12 14:11:53;;;;;;;8.40;4.90;;;9.20;83.70;;;;;;5099986;28;20469;-78
2022/01/12 14:14:22;;;;;;;5.33;4.73;;;9.10;89.60;;;;;;5102621;28;20556;-79
2022/01/12 14:16:51;;;;;;;5.97;4.83;;;9.20;84.50;;;;;;5107076;28;20954;-79